Time;durP1;ratioP1;P1;durP2;ratioP2;P2;SDS_P1;SDS_P2;PMS_P1;PMS_P2;Temp;Humidity;BMP_temperature;BMP_pressure;BME280_temperature;BME280_humidity;BME280_pressure;Samples;Min_cycle;Max_cycle;Signal;HPM_P1;HPM_P2
2023/03/15 00:02:21;;;;;;;7.00;1.90;;;;;;;2.39;86.61;99338.27;106599;1262;22951;-62
2023/03/15 00:04:53;;;;;;;11.10;2.60;;;;;;;2.39;86.66;99340.70;106580;1275;25519;-61
2023/03/15 00:07:24;;;;;;;9.80;1.70;;;;;;;2.40;86.84;99335.86;106607;1259;24261;-60
2023/03/15 00:09:56;;;;;;;10.10;1.70;;;;;;;2.42;86.84;99343.05;106655;1270;25523;-62
2023/03/15 00:12:27;;;;;;;14.90;1.60;;;;;;;2.43;86.83;99351.19;106648;1273;22537;-61
2023/03/15 00:14:59;;;;;;;10.20;1.60;;;;;;;2.43;86.82;99354.31;106726;1273;25288;-61
2023/03/15 00:17:37;;;;;;;10.30;2.00;;;;;;;2.44;86.81;99354.36;106566;1270;23772;-63
2023/03/15 00:20:11;;;;;;;12.20;1.50;;;;;;;2.45;86.76;99363.08;106779;1273;25352;-61
2023/03/15 00:22:42;;;;;;;14.50;2.00;;;;;;;2.44;86.70;99372.79;106676;1274;24095;-62
2023/03/15 00:25:13;;;;;;;13.00;1.80;;;;;;;2.43;86.68;99381.25;106659;1268;24296;-60
2023/03/15 00:27:45;;;;;;;9.50;2.20;;;;;;;2.43;86.69;99388.80;106601;1271;22536;-60
2023/03/15 00:30:16;;;;;;;10.50;2.10;;;;;;;2.42;86.63;99388.73;106607;1274;25384;-62
2023/03/15 00:32:47;;;;;;;11.40;2.30;;;;;;;2.42;86.57;99394.48;106729;1270;25373;-61
2023/03/15 00:35:18;;;;;;;7.40;1.40;;;;;;;2.42;86.46;99404.50;106549;1259;22566;-61
2023/03/15 00:37:50;;;;;;;11.70;1.60;;;;;;;2.42;86.47;99409.16;106596;1274;24263;-61
2023/03/15 00:40:22;;;;;;;14.50;1.70;;;;;;;2.41;86.48;99419.88;106572;1270;24279;-61
2023/03/15 00:42:53;;;;;;;13.30;1.60;;;;;;;2.41;86.44;99427.13;106666;1274;22733;-61
2023/03/15 00:45:24;;;;;;;12.40;2.10;;;;;;;2.40;86.44;99436.52;106784;1266;22521;-61
2023/03/15 00:47:55;;;;;;;11.40;1.40;;;;;;;2.40;86.41;99434.71;106671;1274;24267;-59
2023/03/15 00:50:26;;;;;;;17.80;2.40;;;;;;;2.38;86.41;99438.06;106601;1274;24215;-63
2023/03/15 00:52:57;;;;;;;15.20;1.70;;;;;;;2.37;86.38;99441.33;106479;1274;22516;-59
2023/03/15 00:55:28;;;;;;;15.70;1.40;;;;;;;2.36;86.24;99448.23;107035;1267;25661;-62
2023/03/15 00:57:59;;;;;;;14.60;1.60;;;;;;;2.34;86.28;99447.48;106512;1274;25112;-61
2023/03/15 01:00:30;;;;;;;9.40;1.50;;;;;;;2.34;86.29;99448.27;106528;1274;22547;-61
2023/03/15 01:03:01;;;;;;;12.00;1.90;;;;;;;2.34;86.28;99447.89;106559;1274;22599;-61
2023/03/15 01:05:32;;;;;;;16.30;1.80;;;;;;;2.33;86.22;99450.44;105714;1268;1052826;-59
2023/03/15 01:08:03;;;;;;;10.50;1.60;;;;;;;2.32;86.05;99447.79;106578;1274;22517;-61
2023/03/15 01:10:36;;;;;;;13.80;1.60;;;;;;;2.30;86.15;99449.59;106482;1274;22565;-61
2023/03/15 01:13:07;;;;;;;16.60;1.30;;;;;;;2.28;86.05;99449.00;106576;1270;25223;-60
2023/03/15 01:15:38;;;;;;;13.20;1.40;;;;;;;2.28;86.04;99443.67;106562;1270;25377;-62
2023/03/15 01:18:09;;;;;;;11.40;1.50;;;;;;;2.28;86.02;99450.34;106512;1268;23835;-62
2023/03/15 01:20:44;;;;;;;10.20;1.80;;;;;;;2.28;86.07;99454.38;106535;1251;22578;-62
2023/03/15 01:23:16;;;;;;;13.00;1.60;;;;;;;2.28;86.00;99457.38;106594;1274;22513;-61
2023/03/15 01:25:47;;;;;;;8.60;0.90;;;;;;;2.27;85.97;99458.71;106669;1274;24325;-64
2023/03/15 01:28:18;;;;;;;9.60;1.00;;;;;;;2.27;85.93;99467.38;106468;1271;22569;-61
2023/03/15 01:30:53;;;;;;;8.70;0.90;;;;;;;2.27;85.94;99472.97;106533;1271;22528;-61
2023/03/15 01:33:24;;;;;;;9.40;0.90;;;;;;;2.26;85.85;99479.80;106630;1271;22523;-62
2023/03/15 01:36:02;;;;;;;18.90;1.90;;;;;;;2.26;85.75;99486.09;106505;1259;22544;-61
2023/03/15 01:38:34;;;;;;;12.10;1.10;;;;;;;2.25;85.60;99488.87;106575;1259;22535;-63
2023/03/15 01:41:05;;;;;;;12.00;1.30;;;;;;;2.24;85.44;99487.45;106599;1274;22785;-60
2023/03/15 01:43:36;;;;;;;11.90;1.10;;;;;;;2.24;85.43;99489.44;106642;1274;22570;-61
2023/03/15 01:46:23;;;;;;;11.20;0.80;;;;;;;2.23;85.36;99491.52;106484;1268;24441;-61
2023/03/15 01:48:59;;;;;;;8.70;1.70;;;;;;;2.22;85.10;99496.18;106657;1270;25377;-61
2023/03/15 01:51:37;;;;;;;13.40;0.90;;;;;;;2.23;85.07;99499.63;106456;1268;22533;-61
2023/03/15 01:54:15;;;;;;;8.60;1.10;;;;;;;2.21;84.81;99510.70;106631;1274;22598;-61
2023/03/15 01:56:51;;;;;;;7.40;1.60;;;;;;;2.20;84.79;99518.59;106631;1274;22532;-61
2023/03/15 01:59:25;;;;;;;13.70;1.40;;;;;;;2.18;84.72;99526.92;106606;1268;22522;-61
2023/03/15 02:01:59;;;;;;;16.20;0.90;;;;;;;2.16;84.62;99533.36;106573;1274;24258;-61
2023/03/15 02:04:36;;;;;;;11.70;0.80;;;;;;;2.14;84.67;99535.99;106745;1267;25355;-60
2023/03/15 02:07:09;;;;;;;10.90;0.80;;;;;;;2.12;84.49;99536.30;106626;1268;24488;-62
2023/03/15 02:09:47;;;;;;;12.90;1.10;;;;;;;2.09;84.39;99539.85;106640;1268;24252;-61
2023/03/15 02:12:19;;;;;;;7.00;0.60;;;;;;;2.06;84.52;99537.19;106558;1259;25345;-61
2023/03/15 02:14:52;;;;;;;10.30;0.80;;;;;;;2.04;84.40;99538.67;106557;1268;25511;-62
2023/03/15 02:17:30;;;;;;;10.70;0.90;;;;;;;2.02;84.24;99553.30;106592;1259;23073;-60
2023/03/15 02:20:11;;;;;;;10.10;0.70;;;;;;;1.99;84.32;99559.98;106618;1275;22568;-61
2023/03/15 02:22:52;;;;;;;9.50;1.00;;;;;;;1.96;84.22;99567.54;106470;1274;22567;-61
2023/03/15 02:25:33;;;;;;;13.90;0.90;;;;;;;1.95;84.26;99564.90;106577;1268;22738;-63
2023/03/15 02:28:03;;;;;;;;;;;;;;;1.94;84.19;99562.80;106672;1271;23297;-62
2023/03/15 02:30:34;;;;;;;8.90;0.60;;;;;;;1.92;84.16;99558.91;106601;1262;22518;-59
2023/03/15 02:33:09;;;;;;;8.70;0.80;;;;;;;1.93;84.15;99562.84;106623;1271;22517;-61
2023/03/15 02:35:40;;;;;;;13.80;0.70;;;;;;;1.92;84.18;99567.73;106607;1268;23928;-60
2023/03/15 02:38:10;;;;;;;5.70;0.50;;;;;;;1.92;84.09;99575.70;106524;1259;25345;-60
2023/03/15 02:40:44;;;;;;;9.60;0.90;;;;;;;1.90;84.01;99585.40;106500;1267;24205;-61
2023/03/15 02:43:19;;;;;;;6.90;0.70;;;;;;;1.89;84.01;99587.86;106553;1259;24257;-63
2023/03/15 02:45:51;;;;;;;6.30;0.90;;;;;;;1.89;83.81;99586.05;106761;1267;22781;-61
2023/03/15 02:48:21;;;;;;;9.70;1.00;;;;;;;1.89;83.84;99595.90;106866;1268;22519;-62
2023/03/15 02:50:52;;;;;;;5.80;0.70;;;;;;;1.88;83.87;99598.04;106476;1274;23098;-62
2023/03/15 02:53:23;;;;;;;10.40;0.60;;;;;;;1.88;83.85;99602.83;106521;1274;22520;-61
2023/03/15 02:55:54;;;;;;;12.00;0.70;;;;;;;1.87;83.89;99603.73;106520;1275;22520;-63
2023/03/15 02:58:25;;;;;;;8.90;0.60;;;;;;;1.86;83.95;99610.61;106523;1270;22562;-60
2023/03/15 03:00:56;;;;;;;11.00;0.60;;;;;;;1.83;83.74;99614.52;106536;1259;22584;-61
2023/03/15 03:03:27;;;;;;;12.80;1.40;;;;;;;1.83;83.75;99618.08;106542;1267;22578;-60
2023/03/15 03:05:57;;;;;;;10.00;0.70;;;;;;;1.82;83.79;99631.77;106479;1268;22530;-61
2023/03/15 03:08:28;;;;;;;6.90;0.60;;;;;;;1.82;83.78;99622.60;106530;1274;22517;-61
2023/03/15 03:10:59;;;;;;;9.50;0.90;;;;;;;1.81;83.68;99622.30;106538;1274;22633;-61
2023/03/15 03:13:30;;;;;;;8.40;0.50;;;;;;;1.81;83.67;99622.45;106485;1268;24211;-62
2023/03/15 03:16:00;;;;;;;10.10;1.00;;;;;;;1.81;83.67;99632.67;106453;1275;24223;-61
2023/03/15 03:18:34;;;;;;;8.20;0.60;;;;;;;1.80;83.53;99638.45;106516;1274;24241;-61
2023/03/15 03:21:07;;;;;;;9.60;1.00;;;;;;;1.79;83.62;99639.95;106609;1251;24248;-60
2023/03/15 03:23:38;;;;;;;11.30;0.90;;;;;;;1.78;83.64;99645.20;106602;1259;22557;-61
2023/03/15 03:26:15;;;;;;;14.00;1.00;;;;;;;1.77;83.57;99648.14;106550;1260;22530;-60
2023/03/15 03:28:48;;;;;;;6.90;0.60;;;;;;;1.75;83.47;99653.75;106633;1274;25348;-61
2023/03/15 03:31:21;;;;;;;11.20;0.70;;;;;;;1.74;83.41;99654.03;106532;1269;25505;-61
2023/03/15 03:33:52;;;;;;;6.70;0.70;;;;;;;1.72;83.47;99652.59;106645;1274;25377;-60
2023/03/15 03:36:23;;;;;;;11.30;1.00;;;;;;;1.70;83.56;99652.46;106532;1274;22519;-61
2023/03/15 03:38:55;;;;;;;10.80;0.90;;;;;;;1.68;83.38;99653.38;106637;1259;22658;-61
2023/03/15 03:41:27;;;;;;;16.20;1.90;;;;;;;1.66;83.31;99654.39;106901;1267;22516;-60
2023/03/15 03:43:58;;;;;;;5.80;0.60;;;;;;;1.64;83.29;99655.92;106643;1274;25348;-61
2023/03/15 03:46:29;;;;;;;8.80;0.80;;;;;;;1.62;83.30;99662.20;106765;1270;25244;-61
2023/03/15 03:49:00;;;;;;;7.50;0.70;;;;;;;1.60;83.38;99666.95;106492;1267;22547;-60
2023/03/15 03:51:32;;;;;;;8.60;0.60;;;;;;;1.59;83.48;99666.58;106485;1270;24199;-61
2023/03/15 03:54:04;;;;;;;11.50;0.70;;;;;;;1.58;83.46;99671.25;106561;1274;26108;-60
2023/03/15 03:56:35;;;;;;;12.20;1.40;;;;;;;1.57;83.54;99673.00;106627;1259;22537;-61
2023/03/15 03:59:06;;;;;;;7.70;0.70;;;;;;;1.56;83.53;99668.95;106568;1274;22571;-62
2023/03/15 04:01:37;;;;;;;8.10;1.10;;;;;;;1.54;83.37;99668.68;106560;1274;22525;-61
2023/03/15 04:04:08;;;;;;;9.60;0.90;;;;;;;1.54;83.46;99672.14;106558;1270;22517;-61
2023/03/15 04:06:44;;;;;;;11.60;0.80;;;;;;;1.52;83.42;99681.93;106520;1259;22568;-62
2023/03/15 04:09:16;;;;;;;11.00;0.70;;;;;;;1.51;83.29;99690.06;106499;1266;24378;-63
2023/03/15 04:11:47;;;;;;;15.20;0.90;;;;;;;1.50;83.26;99685.29;106549;1268;24124;-61
2023/03/15 04:14:18;;;;;;;11.70;1.80;;;;;;;1.49;83.21;99686.19;106614;1267;26664;-61
2023/03/15 04:16:49;;;;;;;10.90;0.80;;;;;;;1.49;83.30;99685.39;106527;1269;22580;-61
2023/03/15 04:19:20;;;;;;;9.20;0.70;;;;;;;1.47;83.28;99682.77;106534;1268;24273;-61
2023/03/15 04:21:51;;;;;;;11.10;0.60;;;;;;;1.46;83.14;99690.40;106477;1254;24381;-61
2023/03/15 04:24:22;;;;;;;7.80;0.70;;;;;;;1.43;83.11;99690.88;106532;1268;22648;-61
2023/03/15 04:26:56;;;;;;;7.90;0.60;;;;;;;1.42;83.11;99692.56;106508;1270;24384;-61
2023/03/15 04:29:27;;;;;;;6.90;0.80;;;;;;;1.40;83.11;99694.50;106541;1274;25449;-60
2023/03/15 04:32:00;;;;;;;10.90;0.60;;;;;;;1.38;83.09;99706.18;106589;1268;25358;-61
2023/03/15 04:34:31;;;;;;;5.50;0.80;;;;;;;1.36;83.09;99711.25;106757;1262;24200;-60
2023/03/15 04:37:02;;;;;;;10.10;1.00;;;;;;;1.35;82.97;99715.13;106560;1259;25520;-60
2023/03/15 04:39:33;;;;;;;8.70;0.80;;;;;;;1.34;83.06;99725.84;106502;1259;22521;-61
2023/03/15 04:42:04;;;;;;;10.90;0.70;;;;;;;1.32;83.07;99730.75;106534;1259;24292;-61
2023/03/15 04:44:35;;;;;;;7.50;1.00;;;;;;;1.31;83.14;99738.80;106606;1267;22657;-61
2023/03/15 04:47:06;;;;;;;6.10;0.60;;;;;;;1.30;83.03;99741.81;106689;1267;22574;-60
2023/03/15 04:49:37;;;;;;;14.00;0.60;;;;;;;1.29;83.12;99743.56;106684;1274;22517;-61
2023/03/15 04:52:08;;;;;;;9.20;0.90;;;;;;;1.28;83.03;99747.04;106476;1269;24401;-61
2023/03/15 04:54:39;;;;;;;8.10;1.30;;;;;;;1.27;83.04;99754.35;106746;1274;22528;-61
2023/03/15 04:57:10;;;;;;;7.60;0.60;;;;;;;1.26;82.89;99760.27;106533;1271;22562;-67
2023/03/15 04:59:41;;;;;;;6.10;1.00;;;;;;;1.27;82.98;99760.02;106561;1266;22573;-62
2023/03/15 05:02:11;;;;;;;10.20;0.90;;;;;;;1.26;82.98;99761.92;106567;1259;24494;-62
2023/03/15 05:04:43;;;;;;;7.80;0.70;;;;;;;1.27;82.82;99770.48;106509;1262;22516;-60
2023/03/15 05:07:14;;;;;;;8.30;1.60;;;;;;;1.27;82.80;99776.84;106528;1274;25295;-61
2023/03/15 05:09:45;;;;;;;9.00;0.70;;;;;;;1.26;82.82;99775.98;106501;1274;24298;-67
2023/03/15 05:12:16;;;;;;;11.40;0.60;;;;;;;1.26;82.77;99780.39;106573;1271;25415;-60
2023/03/15 05:14:47;;;;;;;12.10;0.70;;;;;;;1.25;82.76;99782.77;106505;1271;22533;-61
2023/03/15 05:17:18;;;;;;;8.60;0.70;;;;;;;1.26;82.73;99784.34;106535;1267;22531;-61
2023/03/15 05:19:50;;;;;;;8.80;0.60;;;;;;;1.26;82.67;99782.45;106674;1275;22580;-61
2023/03/15 05:22:24;;;;;;;13.30;0.90;;;;;;;1.26;82.67;99780.89;106905;1262;25255;-61
2023/03/15 05:24:55;;;;;;;11.50;1.20;;;;;;;1.24;82.67;99783.98;106502;1269;22521;-63
2023/03/15 05:27:27;;;;;;;14.80;1.10;;;;;;;1.23;82.68;99788.77;106526;1266;22982;-63
2023/03/15 05:29:57;;;;;;;10.40;1.00;;;;;;;1.24;82.70;99791.53;106735;1273;25528;-61
2023/03/15 05:32:29;;;;;;;10.60;0.90;;;;;;;1.23;82.70;99793.19;106557;1273;22516;-62
2023/03/15 05:35:00;;;;;;;16.50;1.40;;;;;;;1.23;82.68;99802.77;106560;1274;25539;-60
2023/03/15 05:37:31;;;;;;;12.60;1.00;;;;;;;1.22;82.67;99809.45;106566;1270;25220;-61
2023/03/15 05:40:03;;;;;;;10.70;1.10;;;;;;;1.22;82.67;99815.51;106799;1266;24396;-63
2023/03/15 05:42:34;;;;;;;15.00;1.20;;;;;;;1.23;82.75;99824.60;106618;1259;22521;-57
2023/03/15 05:45:07;;;;;;;12.40;1.00;;;;;;;1.25;82.91;99831.33;106736;1267;22520;-57
2023/03/15 05:47:38;;;;;;;15.40;1.70;;;;;;;1.25;82.77;99831.95;106695;1268;22522;-58
2023/03/15 05:50:11;;;;;;;6.60;0.80;;;;;;;1.26;82.82;99835.30;107044;1263;22475;-58
2023/03/15 05:52:42;;;;;;;13.20;1.00;;;;;;;1.27;82.79;99838.83;107277;1274;26206;-58
2023/03/15 05:55:13;;;;;;;15.40;1.50;;;;;;;1.28;82.84;99845.19;107113;1270;22524;-58
2023/03/15 05:57:44;;;;;;;12.10;1.50;;;;;;;1.28;82.85;99852.86;107067;1267;22523;-58
2023/03/15 06:00:17;;;;;;;12.20;1.10;;;;;;;1.29;82.72;99855.83;107099;1268;24186;-60
2023/03/15 06:02:48;;;;;;;20.50;2.00;;;;;;;1.30;82.80;99857.55;107184;1263;22504;-58
2023/03/15 06:05:19;;;;;;;9.00;1.10;;;;;;;1.31;82.65;99862.15;107068;1268;22478;-58
2023/03/15 06:07:50;;;;;;;16.30;1.30;;;;;;;1.33;82.64;99868.48;107065;1275;24178;-58
2023/03/15 06:10:21;;;;;;;20.20;2.00;;;;;;;1.34;82.49;99872.94;107127;1274;22653;-60
2023/03/15 06:12:52;;;;;;;12.90;1.00;;;;;;;1.35;82.57;99869.20;107082;1271;22990;-58
2023/03/15 06:15:23;;;;;;;15.00;1.30;;;;;;;1.36;82.57;99869.51;107161;1270;24292;-57
2023/03/15 06:17:54;;;;;;;13.40;1.20;;;;;;;1.37;82.39;99873.73;107110;1274;25476;-58
2023/03/15 06:20:25;;;;;;;13.80;0.90;;;;;;;1.38;82.52;99877.33;107101;1269;25480;-58
2023/03/15 06:22:56;;;;;;;11.70;0.90;;;;;;;1.39;82.53;99884.52;107217;1274;24019;-58
2023/03/15 06:25:27;;;;;;;11.00;1.60;;;;;;;1.42;82.64;99882.27;107142;1267;23076;-56
2023/03/15 06:27:57;;;;;;;12.10;0.70;;;;;;;1.43;82.66;99883.73;107300;1273;24360;-55
2023/03/15 06:30:28;;;;;;;14.70;1.20;;;;;;;1.46;82.29;99886.58;107085;1271;25307;-56
2023/03/15 06:33:00;;;;;;;9.50;1.40;;;;;;;1.47;82.28;99890.70;107186;1272;22532;-58
2023/03/15 06:35:30;;;;;;;17.60;1.70;;;;;;;1.50;82.27;99887.67;107245;1274;22514;-57
2023/03/15 06:38:01;;;;;;;14.00;1.00;;;;;;;1.52;82.06;99893.84;107208;1268;22528;-59
2023/03/15 06:40:37;;;;;;;16.90;1.20;;;;;;;1.55;82.09;99898.02;107183;1268;22657;-59
2023/03/15 06:43:08;;;;;;;10.30;2.40;;;;;;;1.58;81.88;99897.85;107288;1274;24098;-58
2023/03/15 06:45:39;;;;;;;9.40;0.80;;;;;;;1.62;82.14;99899.19;107204;1274;23901;-58
2023/03/15 06:48:10;;;;;;;15.70;1.50;;;;;;;1.66;81.84;99904.27;107168;1271;22529;-58
2023/03/15 06:50:41;;;;;;;16.40;1.30;;;;;;;1.71;81.90;99913.77;107516;1261;22622;-59
2023/03/15 06:53:12;;;;;;;11.50;0.80;;;;;;;1.76;81.70;99924.27;107646;1269;22513;-59
2023/03/15 06:55:43;;;;;;;11.20;1.70;;;;;;;1.81;81.58;99924.23;107262;1274;22546;-59
2023/03/15 06:58:15;;;;;;;7.70;1.00;;;;;;;1.87;81.58;99927.11;107225;1274;22800;-58
2023/03/15 07:00:47;;;;;;;11.30;0.90;;;;;;;1.94;81.52;99935.83;107084;1262;22715;-59
2023/03/15 07:03:21;;;;;;;15.40;1.20;;;;;;;2.01;81.30;99945.18;107135;1274;25418;-60
2023/03/15 07:05:53;;;;;;;9.20;0.90;;;;;;;2.07;81.13;99941.80;107253;1271;24294;-58
2023/03/15 07:08:26;;;;;;;13.20;1.20;;;;;;;2.14;81.00;99948.64;107131;1260;22510;-58
2023/03/15 07:10:57;;;;;;;11.10;0.80;;;;;;;2.22;81.20;99955.01;107175;1274;22480;-58
2023/03/15 07:13:28;;;;;;;7.80;1.00;;;;;;;2.27;80.82;99957.71;106772;1271;22821;-57
2023/03/15 07:15:58;;;;;;;18.90;1.70;;;;;;;2.30;80.80;99954.80;106565;1271;22525;-56
2023/03/15 07:18:29;;;;;;;15.70;1.20;;;;;;;2.33;81.05;99957.95;106624;1259;25482;-56
2023/03/15 07:21:02;;;;;;;16.10;1.30;;;;;;;2.38;81.04;99962.64;106630;1271;22648;-57
2023/03/15 07:23:35;;;;;;;15.20;1.00;;;;;;;2.40;80.31;99961.80;106659;1266;25345;-56
2023/03/15 07:26:06;;;;;;;9.30;1.30;;;;;;;2.42;80.50;99967.89;106686;1274;22520;-58
2023/03/15 07:28:37;;;;;;;12.60;0.90;;;;;;;2.45;80.50;99968.59;106555;1274;24754;-55
2023/03/15 07:31:10;;;;;;;6.40;0.60;;;;;;;2.49;80.18;99969.91;106611;1270;22569;-57
2023/03/15 07:33:41;;;;;;;16.70;2.50;;;;;;;2.50;79.35;99979.42;106662;1274;22634;-55
2023/03/15 07:36:12;;;;;;;9.20;1.00;;;;;;;2.51;79.42;99979.65;106741;1274;22513;-57
2023/03/15 07:38:45;;;;;;;13.30;0.80;;;;;;;2.54;79.40;99981.45;106580;1274;25611;-57
2023/03/15 07:41:16;;;;;;;11.70;1.00;;;;;;;2.57;79.11;99987.84;106658;1274;25363;-57
2023/03/15 07:43:47;;;;;;;14.10;0.80;;;;;;;2.62;79.12;99995.92;106590;1274;22516;-58
2023/03/15 07:46:18;;;;;;;13.50;1.10;;;;;;;2.64;78.62;100000.44;106569;1271;22511;-59
2023/03/15 07:48:49;;;;;;;12.00;1.50;;;;;;;2.67;79.04;99997.98;106654;1263;22520;-56
2023/03/15 07:51:20;;;;;;;9.40;0.80;;;;;;;2.73;79.10;99994.68;106665;1266;22529;-58
2023/03/15 07:53:51;;;;;;;9.80;1.00;;;;;;;2.78;78.86;100000.16;106552;1262;24702;-59
2023/03/15 07:56:22;;;;;;;11.10;0.80;;;;;;;2.81;78.99;99995.27;106560;1274;26607;-58
2023/03/15 07:58:53;;;;;;;13.70;1.20;;;;;;;2.86;79.36;99999.01;106600;1274;24200;-57
2023/03/15 08:01:24;;;;;;;8.10;0.80;;;;;;;2.92;78.68;99996.08;106683;1260;22519;-59
2023/03/15 08:03:56;;;;;;;10.40;0.80;;;;;;;2.98;78.71;100000.99;106545;1274;22566;-56
2023/03/15 08:06:27;;;;;;;4.20;0.60;;;;;;;3.01;78.15;100010.27;106572;1272;23453;-56
2023/03/15 08:09:00;;;;;;;8.40;0.80;;;;;;;3.02;77.75;100003.08;106616;1272;22517;-58
2023/03/15 08:11:31;;;;;;;14.40;1.00;;;;;;;3.06;77.59;100006.20;106643;1274;24314;-58
2023/03/15 08:14:02;;;;;;;12.40;1.70;;;;;;;3.10;77.40;100014.60;106709;1274;25281;-57
2023/03/15 08:16:33;;;;;;;13.20;1.10;;;;;;;3.16;77.69;100016.11;106696;1269;22516;-58
2023/03/15 08:19:05;;;;;;;9.20;1.30;;;;;;;3.21;76.88;100023.45;106777;1275;22518;-58
2023/03/15 08:21:36;;;;;;;8.20;0.60;;;;;;;3.20;76.43;100030.89;106672;1274;22524;-57
2023/03/15 08:24:08;;;;;;;17.30;0.80;;;;;;;3.20;77.00;100031.60;106800;1274;25348;-58
2023/03/15 08:26:38;;;;;;;12.60;0.70;;;;;;;3.21;76.46;100035.44;106988;1269;22507;-58
2023/03/15 08:29:10;;;;;;;8.50;0.90;;;;;;;3.20;76.03;100035.00;106592;1266;22511;-57
2023/03/15 08:31:41;;;;;;;8.00;0.70;;;;;;;3.19;75.83;100048.65;106766;1274;26351;-58
2023/03/15 08:34:12;;;;;;;15.40;1.10;;;;;;;3.20;76.45;100045.39;106780;1272;22536;-59
2023/03/15 08:36:43;;;;;;;8.30;0.80;;;;;;;3.24;76.37;100044.98;106548;1266;22521;-58
2023/03/15 08:39:14;;;;;;;6.40;0.80;;;;;;;3.25;75.22;100051.40;106658;1272;25230;-58
2023/03/15 08:41:46;;;;;;;7.00;0.50;;;;;;;3.26;75.55;100053.48;106682;1269;22532;-56
2023/03/15 08:44:17;;;;;;;9.80;0.80;;;;;;;3.29;75.18;100056.91;106627;1260;25373;-57
2023/03/15 08:46:48;;;;;;;9.40;0.70;;;;;;;3.33;75.83;100061.95;106736;1274;22622;-57
2023/03/15 08:49:19;;;;;;;20.40;1.40;;;;;;;3.37;75.26;100068.13;106568;1268;22593;-57
2023/03/15 08:51:50;;;;;;;8.20;0.70;;;;;;;3.43;75.95;100071.99;106707;1275;24280;-58
2023/03/15 08:54:22;;;;;;;14.80;0.70;;;;;;;3.51;75.44;100079.59;106919;1260;27725;-58
2023/03/15 08:56:53;;;;;;;9.00;0.60;;;;;;;3.55;74.85;100081.67;106659;1269;22518;-58
2023/03/15 08:59:24;;;;;;;12.50;1.60;;;;;;;3.58;74.14;100084.51;106551;1269;24202;-58
2023/03/15 09:01:54;;;;;;;9.20;0.90;;;;;;;3.59;73.88;100090.95;106546;1274;22522;-55
2023/03/15 09:04:26;;;;;;;9.20;0.50;;;;;;;3.59;73.51;100096.88;106603;1272;22666;-57
2023/03/15 09:06:57;;;;;;;10.80;1.30;;;;;;;3.58;73.60;100092.97;106587;1266;25337;-56
2023/03/15 09:09:28;;;;;;;15.10;0.80;;;;;;;3.58;73.08;100096.19;106674;1269;24222;-60
2023/03/15 09:11:59;;;;;;;12.50;0.80;;;;;;;3.60;74.08;100092.42;106591;1272;23330;-58
2023/03/15 09:14:30;;;;;;;11.00;0.80;;;;;;;3.65;74.06;100091.80;106595;1268;23252;-58
2023/03/15 09:17:01;;;;;;;6.00;0.80;;;;;;;3.69;73.68;100092.35;106598;1274;22516;-58
2023/03/15 09:19:32;;;;;;;7.80;0.60;;;;;;;3.71;73.72;100096.38;106554;1274;22531;-57
2023/03/15 09:22:04;;;;;;;15.10;1.10;;;;;;;3.76;73.89;100096.73;106651;1274;24219;-57
2023/03/15 09:24:35;;;;;;;13.50;0.80;;;;;;;3.83;73.84;100101.02;106568;1266;24256;-57
2023/03/15 09:27:06;;;;;;;11.20;1.30;;;;;;;3.88;73.18;100099.23;106552;1268;22540;-55
2023/03/15 09:29:37;;;;;;;7.30;0.70;;;;;;;3.93;74.18;100103.27;106725;1274;22629;-59
2023/03/15 09:32:10;;;;;;;8.60;0.60;;;;;;;4.02;73.39;100109.16;106723;1266;22564;-56
2023/03/15 09:34:41;;;;;;;14.20;1.10;;;;;;;4.08;73.38;100102.13;106762;1274;24292;-57
2023/03/15 09:37:12;;;;;;;11.80;0.60;;;;;;;4.15;72.84;100098.52;106650;1272;26600;-58
2023/03/15 09:39:44;;;;;;;7.80;0.80;;;;;;;4.22;72.60;100102.05;106576;1266;24226;-59
2023/03/15 09:42:23;;;;;;;6.20;1.10;;;;;;;4.27;72.84;100098.83;106736;1263;22520;-58
2023/03/15 09:45:05;;;;;;;7.80;0.70;;;;;;;4.34;72.90;100096.23;106670;1274;26621;-58
2023/03/15 09:47:42;;;;;;;5.90;0.60;;;;;;;4.44;72.89;100094.03;106537;1274;26295;-57
2023/03/15 09:50:24;;;;;;;12.70;0.70;;;;;;;4.50;71.73;100095.67;106572;1259;22516;-58
2023/03/15 09:53:00;;;;;;;9.20;0.60;;;;;;;4.51;71.58;100098.57;106596;1266;25300;-60
2023/03/15 09:55:32;;;;;;;8.90;0.90;;;;;;;4.53;70.06;100106.96;106571;1269;24365;-59
2023/03/15 09:58:04;;;;;;;10.50;0.70;;;;;;;4.52;70.69;100104.84;106664;1272;24269;-56
2023/03/15 10:00:41;;;;;;;12.40;0.90;;;;;;;4.58;70.74;100101.10;106575;1274;25362;-59
2023/03/15 10:03:20;;;;;;;9.20;0.60;;;;;;;4.63;69.93;100098.09;106653;1259;22595;-58
2023/03/15 10:05:58;;;;;;;7.00;1.10;;;;;;;4.68;69.94;100095.51;106651;1272;22516;-56
2023/03/15 10:08:30;;;;;;;10.40;2.00;;;;;;;4.72;69.10;100097.50;106685;1259;25426;-57
2023/03/15 10:11:09;;;;;;;9.90;1.30;;;;;;;4.73;69.09;100101.59;106682;1274;26363;-58
2023/03/15 10:13:53;;;;;;;8.80;0.70;;;;;;;4.72;68.13;100105.33;106626;1274;24281;-58
2023/03/15 10:16:39;;;;;;;7.70;0.80;;;;;;;4.66;66.71;100106.95;106636;1274;22520;-59
2023/03/15 10:19:17;;;;;;;11.00;0.70;;;;;;;4.60;68.38;100105.70;106670;1274;24391;-56
2023/03/15 10:21:56;;;;;;;12.50;1.40;;;;;;;4.60;67.51;100103.64;106572;1266;22528;-59
2023/03/15 10:24:34;;;;;;;11.20;0.90;;;;;;;4.58;67.65;100104.20;106687;1274;22470;-58
2023/03/15 10:27:15;;;;;;;7.50;0.60;;;;;;;4.60;69.18;100100.64;106698;1271;25365;-57
2023/03/15 10:29:49;;;;;;;9.60;1.60;;;;;;;4.66;68.10;100102.52;106734;1269;22571;-57
2023/03/15 10:32:25;;;;;;;11.60;0.70;;;;;;;4.70;68.65;100094.80;106610;1260;22600;-58
2023/03/15 10:34:58;;;;;;;9.60;0.80;;;;;;;4.74;68.06;100093.56;106602;1253;25604;-58
2023/03/15 10:37:29;;;;;;;16.00;0.80;;;;;;;4.80;68.19;100093.13;106873;1271;24654;-57
2023/03/15 10:40:01;;;;;;;7.40;0.80;;;;;;;4.84;66.56;100093.95;106603;1275;22538;-58
2023/03/15 10:42:33;;;;;;;9.60;1.00;;;;;;;4.86;66.67;100095.17;106623;1266;24267;-59
2023/03/15 10:45:19;;;;;;;10.70;0.90;;;;;;;4.91;67.39;100098.48;106714;1260;24260;-57
2023/03/15 10:47:51;;;;;;;10.00;0.80;;;;;;;5.01;67.33;100101.02;106568;1274;25511;-57
2023/03/15 10:50:30;;;;;;;8.10;0.70;;;;;;;5.06;66.01;100102.89;106704;1267;24209;-58
2023/03/15 10:53:09;;;;;;;9.60;0.90;;;;;;;5.12;66.40;100104.44;106652;1275;23153;-60
2023/03/15 10:55:45;;;;;;;4.90;0.70;;;;;;;5.19;66.15;100103.98;106991;1274;25381;-60
2023/03/15 10:58:26;;;;;;;5.40;0.70;;;;;;;5.26;66.40;100105.95;106879;1272;25415;-57
2023/03/15 11:01:01;;;;;;;;;;;;;;;5.32;66.18;100104.55;106865;1274;22562;-56
2023/03/15 11:03:32;;;;;;;13.40;0.60;;;;;;;5.38;64.23;100099.78;106654;1272;24243;-59
2023/03/15 11:06:04;;;;;;;6.00;0.60;;;;;;;5.43;64.34;100100.31;106588;1272;22629;-59
2023/03/15 11:08:42;;;;;;;5.90;0.50;;;;;;;5.48;62.80;100108.60;106641;1274;22669;-58
2023/03/15 11:11:14;;;;;;;5.90;0.60;;;;;;;5.50;61.69;100109.30;106773;1274;24308;-59
2023/03/15 11:14:00;;;;;;;4.60;0.50;;;;;;;5.53;63.31;100104.02;106654;1274;22562;-59
2023/03/15 11:16:37;;;;;;;5.30;0.50;;;;;;;5.59;61.05;100107.02;106607;1274;22517;-59
2023/03/15 11:19:16;;;;;;;5.70;0.50;;;;;;;5.64;60.45;100104.10;106682;1272;22529;-58
2023/03/15 11:21:49;;;;;;;5.40;0.60;;;;;;;5.67;61.45;100100.65;106650;1262;22996;-56
2023/03/15 11:24:26;;;;;;;5.70;0.50;;;;;;;5.74;60.56;100099.60;106600;1274;22546;-58
2023/03/15 11:27:00;;;;;;;7.20;0.40;;;;;;;5.80;60.82;100098.88;106730;1274;22522;-57
2023/03/15 11:29:33;;;;;;;7.50;0.50;;;;;;;5.87;61.62;100089.77;106782;1274;25376;-58
2023/03/15 11:32:15;;;;;;;6.40;0.70;;;;;;;5.92;60.72;100094.98;106742;1274;22536;-56
2023/03/15 11:34:53;;;;;;;6.50;0.40;;;;;;;5.97;60.24;100102.08;106796;1270;25356;-57
2023/03/15 11:37:26;;;;;;;5.30;0.60;;;;;;;5.97;59.86;100104.46;106590;1272;24286;-58
2023/03/15 11:40:02;;;;;;;8.20;0.90;;;;;;;5.98;59.68;100109.95;106623;1272;22520;-56
2023/03/15 11:42:37;;;;;;;10.30;1.10;;;;;;;6.00;59.82;100107.58;106713;1268;22520;-58
2023/03/15 11:45:17;;;;;;;7.20;1.00;;;;;;;6.00;59.36;100103.71;106742;1274;24419;-59
2023/03/15 11:47:56;;;;;;;6.90;0.50;;;;;;;6.01;60.36;100106.02;106698;1268;23024;-58
2023/03/15 11:50:27;;;;;;;7.00;0.60;;;;;;;6.04;59.33;100105.21;106678;1272;24268;-57
2023/03/15 11:53:02;;;;;;;6.90;0.80;;;;;;;6.05;59.20;100103.60;106670;1274;22546;-58